KBFI/BFI METAR and TAF weather

Enter ICAO airport designator
Station Type Date Time Source
KBFI METAR 2018/12/13 14:53 UTC NOAA

KBFI 131453Z 16008KT 6SM -RA FEW016 BKN030 OVC040 08/05 A3006 RMK AO2 RAB11 SLP180 P0001 60003 T00780050 53001


Station Type Date Time Source
KBFI Decoded METAR 2018/12/13 14:53 UTC NOAA

SEATTLE BOEING FIELD, WA, United States (KBFI) 47-33N 122-19W 4M
Dec 13, 2018 - 09:53 AM EST / 2018.12.13 1453 UTC
Wind: from the SSE (160 degrees) at 9 MPH (8 KT):0
Visibility: 6 mile(s):0
Sky conditions: overcast
Weather: light rain
Precipitation last hour: 0.01 inches
Temperature: 46.0 F (7.8 C)
Dew Point: 41.0 F (5.0 C)
Relative Humidity: 82%
Pressure (altimeter): 30.06 in. Hg (1017 hPa)
Pressure tendency: 0.00 inches (0.1 hPa) higher than three hours ago
ob: KBFI 131453Z 16008KT 6SM -RA FEW016 BKN030 OVC040 08/05 A3006 RMK AO2 RAB11 SLP180 P0001 60003 T00780050 53001
cycle: 15

Station Type Date Time Source
KBFI TAF 2018/12/13 16:33 UTC NOAA

TAF
AMD KBFI 131531Z 1316/1412 16012G21KT P6SM -RA SCT020 OVC030 WS020/18040KT
FM131800 16015G24KT P6SM -SHRA OVC025 WS020/18035KT
FM140200 16012KT P6SM OVC035
FM140600 15007KT P6SM OVC040


Example: see airport list